createdAt,value
2022-12-18T00:00:11.030Z,149596.28
2022-12-18T00:02:49.940Z,149587.31
2022-12-18T00:05:23.165Z,149591.19
2022-12-18T00:07:54.168Z,149592.44
2022-12-18T00:10:24.952Z,149603.97
2022-12-18T00:12:57.713Z,149580.94
2022-12-18T00:15:28.316Z,149583.47
2022-12-18T00:17:59.423Z,149580.94
2022-12-18T00:20:38.089Z,149579.63
2022-12-18T00:23:09.486Z,149574.50
2022-12-18T00:25:41.042Z,149551.47
2022-12-18T00:28:24.902Z,149565.56
2022-12-18T00:31:07.579Z,149560.41
2022-12-18T00:33:40.248Z,149548.88
2022-12-18T00:36:16.632Z,149551.47
2022-12-18T00:38:49.531Z,149541.22
2022-12-18T00:41:42.296Z,149560.41
2022-12-18T00:44:17.400Z,149564.25
2022-12-18T00:46:49.440Z,149539.91
2022-12-18T00:49:22.509Z,149537.38
2022-12-18T00:51:53.921Z,149538.66
2022-12-18T00:54:28.691Z,149537.38
2022-12-18T00:56:58.970Z,149529.66
2022-12-18T00:59:33.172Z,149520.69
2022-12-18T01:02:04.895Z,149516.91
2022-12-18T01:04:36.611Z,149496.34
2022-12-18T01:07:08.058Z,149491.25
2022-12-18T01:09:39.202Z,149491.25
2022-12-18T01:12:10.341Z,149463.09
2022-12-18T01:14:47.079Z,149452.88
2022-12-18T01:17:18.914Z,149460.53
2022-12-18T01:19:49.179Z,149457.97
2022-12-18T01:22:19.323Z,149464.38
2022-12-18T01:24:51.903Z,149455.41
2022-12-18T01:27:22.538Z,149438.78
2022-12-18T01:30:02.687Z,149446.44
2022-12-18T01:32:36.647Z,149464.38
2022-12-18T01:35:07.439Z,149442.56
2022-12-18T01:37:37.772Z,149452.88
2022-12-18T01:40:09.239Z,149443.91
2022-12-18T01:42:39.401Z,149442.56
2022-12-18T01:45:33.394Z,149419.56
2022-12-18T01:48:07.560Z,149423.38
2022-12-18T01:50:40.699Z,149413.13
2022-12-18T01:53:15.008Z,149423.38
2022-12-18T01:55:50.583Z,149415.72
2022-12-18T01:58:24.364Z,149404.22
2022-12-18T02:00:59.178Z,149399.09
2022-12-18T02:03:30.058Z,149422.09
2022-12-18T02:06:11.085Z,149414.44
2022-12-18T02:08:49.722Z,149415.72
2022-12-18T02:11:26.012Z,149410.59
2022-12-18T02:14:07.719Z,149416.97
2022-12-18T02:16:51.479Z,149413.13
2022-12-18T02:19:43.841Z,149402.91
2022-12-18T02:22:29.042Z,149401.63
2022-12-18T02:25:10.343Z,149396.50
2022-12-18T02:27:45.313Z,149378.56
2022-12-18T02:30:16.394Z,149378.56
2022-12-18T02:32:52.158Z,149392.66
2022-12-18T02:35:28.219Z,149395.22
2022-12-18T02:38:02.197Z,149422.09
2022-12-18T02:40:36.893Z,149410.59
2022-12-18T02:43:12.240Z,149405.47
2022-12-18T02:45:52.183Z,149411.88
2022-12-18T02:48:27.995Z,149424.69
2022-12-18T02:51:07.947Z,149411.88
2022-12-18T02:53:46.917Z,149393.91
2022-12-18T02:56:22.945Z,149406.75
2022-12-18T02:59:02.785Z,149401.63
2022-12-18T03:01:46.308Z,149413.13
2022-12-18T03:04:27.822Z,149418.25
2022-12-18T03:07:04.595Z,149419.56
2022-12-18T03:09:39.568Z,149419.56
2022-12-18T03:12:28.053Z,149425.94
2022-12-18T03:15:16.010Z,149419.56
2022-12-18T03:17:56.026Z,149397.78
2022-12-18T03:20:38.735Z,149388.81
2022-12-18T03:23:15.283Z,149390.13
2022-12-18T03:26:07.146Z,149405.47
2022-12-18T03:28:44.192Z,149399.09
2022-12-18T03:31:18.735Z,149408.00
2022-12-18T03:33:55.466Z,149399.09
2022-12-18T03:36:31.485Z,149386.28
2022-12-18T03:39:05.322Z,149393.91
2022-12-18T03:41:50.883Z,149397.78
2022-12-18T03:44:34.359Z,149387.53
2022-12-18T03:47:11.935Z,149377.28
2022-12-18T03:49:52.281Z,149374.75
2022-12-18T03:52:30.441Z,149381.16
2022-12-18T03:55:04.435Z,149388.81
2022-12-18T03:57:36.845Z,149377.28
2022-12-18T04:00:17.068Z,149387.53
2022-12-18T04:03:05.152Z,149382.41
2022-12-18T04:05:46.246Z,149370.91
2022-12-18T04:08:19.086Z,149373.44
2022-12-18T04:10:59.648Z,149363.22
2022-12-18T04:13:34.068Z,149355.56
2022-12-18T04:16:08.227Z,149360.69
2022-12-18T04:18:41.721Z,149347.84
2022-12-18T04:21:14.208Z,149354.25
2022-12-18T04:23:44.433Z,149347.84
2022-12-18T04:26:14.956Z,149337.63
2022-12-18T04:28:56.033Z,149341.47
2022-12-18T04:31:26.343Z,149346.59
2022-12-18T04:34:00.315Z,149328.66
2022-12-18T04:36:32.107Z,149331.22
2022-12-18T04:39:02.921Z,149315.88
2022-12-18T04:41:42.344Z,149313.31
2022-12-18T04:44:13.569Z,149290.25
2022-12-18T04:46:43.914Z,149281.28
2022-12-18T04:49:16.891Z,149277.47
2022-12-18T04:51:48.034Z,149276.16
2022-12-18T04:54:18.203Z,149271.06
2022-12-18T04:56:51.447Z,149259.56
2022-12-18T04:59:22.633Z,149267.25
2022-12-18T05:01:53.577Z,149258.28
2022-12-18T05:04:26.942Z,149253.16
2022-12-18T05:07:00.870Z,149253.16
2022-12-18T05:09:31.227Z,149260.81
2022-12-18T05:12:01.485Z,149260.81
2022-12-18T05:14:32.808Z,149254.44
2022-12-18T05:17:04.399Z,149260.81
2022-12-18T05:19:40.032Z,149262.13
2022-12-18T05:22:13.834Z,149276.16
2022-12-18T05:24:43.689Z,149253.16
2022-12-18T05:27:13.861Z,149251.84
2022-12-18T05:29:44.185Z,149231.38
2022-12-18T05:32:14.406Z,149209.66
2022-12-18T05:34:47.148Z,149205.81
2022-12-18T05:37:18.092Z,149195.59
2022-12-18T05:39:49.107Z,149173.81
2022-12-18T05:42:19.497Z,149177.66
2022-12-18T05:44:49.603Z,149164.88
2022-12-18T05:47:19.854Z,149170.00
2022-12-18T05:49:53.038Z,149166.16
2022-12-18T05:52:23.037Z,149155.94
2022-12-18T05:54:53.132Z,149146.97
2022-12-18T05:57:23.436Z,149141.84
2022-12-18T05:59:53.711Z,149131.63
2022-12-18T06:02:28.315Z,149166.16
2022-12-18T06:05:01.176Z,149175.13
2022-12-18T06:07:31.208Z,149186.63
2022-12-18T06:10:04.755Z,149180.22
2022-12-18T06:12:35.120Z,149178.97
2022-12-18T06:15:05.268Z,149158.47
2022-12-18T06:17:36.318Z,149155.94
2022-12-18T06:20:10.843Z,149154.66
2022-12-18T06:22:41.055Z,149164.88
2022-12-18T06:25:12.195Z,149153.34
2022-12-18T06:27:42.467Z,149145.69
2022-12-18T06:30:14.845Z,149132.88
2022-12-18T06:32:45.141Z,149141.84
2022-12-18T06:35:21.419Z,149132.88
2022-12-18T06:37:52.121Z,149136.75
2022-12-18T06:40:23.204Z,149141.84
2022-12-18T06:42:56.330Z,149125.25
2022-12-18T06:45:28.346Z,149121.41
2022-12-18T06:47:58.567Z,149118.81
2022-12-18T06:50:32.048Z,149120.09
2022-12-18T06:53:02.504Z,149129.03
2022-12-18T06:55:32.772Z,149135.47
2022-12-18T06:58:02.893Z,149127.78
2022-12-18T07:00:33.392Z,149138.00
2022-12-18T07:03:04.048Z,149143.13
2022-12-18T07:05:37.473Z,149154.66
2022-12-18T07:08:08.319Z,149163.56
2022-12-18T07:10:48.214Z,149163.56
2022-12-18T07:13:19.291Z,149177.66
2022-12-18T07:15:49.658Z,149210.94
2022-12-18T07:18:20.605Z,149210.94
2022-12-18T07:20:58.770Z,149217.31
2022-12-18T07:23:33.742Z,149216.03
2022-12-18T07:26:06.197Z,149230.13
2022-12-18T07:28:38.008Z,149237.81
2022-12-18T07:31:09.872Z,149242.94
2022-12-18T07:33:41.121Z,149267.25
2022-12-18T07:36:17.694Z,149304.34
2022-12-18T07:38:51.423Z,149306.91
2022-12-18T07:41:21.694Z,149319.69
2022-12-18T07:43:52.548Z,149329.91
2022-12-18T07:46:23.103Z,149358.09
2022-12-18T07:48:53.408Z,149367.06
2022-12-18T07:51:26.288Z,149387.53
2022-12-18T07:53:56.333Z,149404.22
2022-12-18T07:56:28.760Z,149415.72
2022-12-18T07:59:01.266Z,149425.94
2022-12-18T08:01:43.621Z,149434.91
2022-12-18T08:04:13.828Z,149447.69
2022-12-18T08:06:53.162Z,149460.53
2022-12-18T08:09:25.860Z,149493.81
2022-12-18T08:11:56.097Z,149509.19
2022-12-18T08:14:27.199Z,149520.69
2022-12-18T08:16:57.571Z,149538.66
2022-12-18T08:19:28.160Z,149536.09
2022-12-18T08:22:01.865Z,149569.38
2022-12-18T08:24:36.371Z,149582.19
2022-12-18T08:27:28.825Z,149577.06
2022-12-18T08:29:56.996Z,149607.81
2022-12-18T08:32:36.240Z,149606.53
2022-12-18T08:35:11.681Z,149647.53
2022-12-18T08:37:44.694Z,149639.88
2022-12-18T08:40:18.234Z,149671.88
2022-12-18T08:43:01.793Z,149655.22
2022-12-18T08:45:39.317Z,149694.94
2022-12-18T08:48:12.347Z,149688.56
2022-12-18T08:50:42.710Z,149694.94
2022-12-18T08:53:17.152Z,149723.16
2022-12-18T08:55:50.364Z,149752.63
2022-12-18T08:58:23.179Z,149755.19
2022-12-18T09:00:54.025Z,149738.53
2022-12-18T09:03:24.839Z,149766.75
2022-12-18T09:05:57.597Z,149775.69
2022-12-18T09:08:30.564Z,149794.91
2022-12-18T09:11:03.352Z,149820.59
2022-12-18T09:13:36.166Z,149803.88
2022-12-18T09:16:08.125Z,149821.84
2022-12-18T09:18:43.490Z,149837.22
2022-12-18T09:21:19.104Z,149837.22
2022-12-18T09:24:02.370Z,149848.75
2022-12-18T09:26:32.756Z,149859.00
2022-12-18T09:29:07.142Z,149879.56
2022-12-18T09:31:41.616Z,149888.50
2022-12-18T09:34:11.402Z,149914.19
2022-12-18T09:36:53.428Z,149915.47
2022-12-18T09:39:24.175Z,149894.94
2022-12-18T09:41:54.740Z,149900.06
2022-12-18T09:44:24.558Z,149943.69
2022-12-18T10:48:55.768Z,150208.00
2022-12-18T10:51:31.723Z,150199.03
2022-12-18T10:54:06.215Z,150231.09
2022-12-18T10:56:39.260Z,150182.31
2022-12-18T10:59:10.913Z,150182.31
2022-12-18T11:01:52.140Z,150168.22
2022-12-18T11:04:27.741Z,150214.41
2022-12-18T11:07:04.322Z,150258.06
2022-12-18T11:09:36.223Z,150286.34
2022-12-18T11:12:08.366Z,150279.88
2022-12-18T11:14:48.457Z,150282.47
2022-12-18T11:17:26.225Z,150286.34
2022-12-18T11:20:00.927Z,150265.75
2022-12-18T11:22:33.317Z,150268.34
2022-12-18T11:27:58.970Z,150240.09
2022-12-18T11:30:36.296Z,150278.59
2022-12-18T11:33:09.703Z,150267.06
2022-12-18T11:35:51.717Z,150255.47
2022-12-18T11:38:26.922Z,150323.53
2022-12-18T11:41:02.338Z,150336.41
2022-12-18T11:43:38.281Z,150365.94
2022-12-18T11:46:19.126Z,150387.75
2022-12-18T11:48:56.180Z,150376.22
2022-12-18T11:51:36.288Z,150377.47
2022-12-18T11:54:16.387Z,150401.91
2022-12-18T11:56:51.277Z,150395.50
2022-12-18T11:59:32.306Z,150408.31
2022-12-18T12:02:18.946Z,150378.75
2022-12-18T12:05:17.735Z,150404.47
2022-12-18T12:07:59.311Z,150389.06
2022-12-18T12:10:44.916Z,150435.31
2022-12-18T12:13:27.853Z,150466.13
2022-12-18T12:16:10.499Z,150464.84
2022-12-18T12:19:02.257Z,150432.72
2022-12-18T12:21:39.740Z,150451.97
2022-12-18T12:24:27.471Z,150469.97
2022-12-18T12:27:06.637Z,150480.25
2022-12-18T12:29:49.577Z,150469.97
2022-12-18T12:32:34.433Z,150481.53
2022-12-18T12:35:17.840Z,150471.25
2022-12-18T12:37:56.956Z,150450.72
2022-12-18T12:43:34.205Z,150445.56
2022-12-18T12:46:09.659Z,150407.03
2022-12-18T12:48:45.887Z,150416.03
2022-12-18T12:51:21.607Z,150432.72
2022-12-18T12:53:53.100Z,150431.44
2022-12-18T12:56:28.956Z,150416.03
2022-12-18T12:59:06.284Z,150413.47
2022-12-18T13:01:43.890Z,150414.75
2022-12-18T13:04:26.192Z,150399.34
2022-12-18T13:07:04.149Z,150401.91
2022-12-18T13:09:36.725Z,150392.88
2022-12-18T13:12:27.758Z,150387.75
2022-12-18T13:14:58.598Z,150378.75
2022-12-18T13:17:33.686Z,150382.63
2022-12-18T13:20:24.943Z,150377.47
2022-12-18T13:22:56.490Z,150365.94
2022-12-18T13:25:39.823Z,150383.94
2022-12-18T13:28:15.888Z,150382.63
2022-12-18T13:30:51.778Z,150385.22
2022-12-18T13:34:24.006Z,150373.63
2022-12-18T13:36:37.727Z,150354.41
2022-12-18T13:39:36.050Z,150338.94
2022-12-18T13:42:48.938Z,150323.53
2022-12-18T13:45:50.317Z,150318.41
2022-12-18T13:48:42.504Z,150299.16
2022-12-18T13:51:20.700Z,150286.34
2022-12-18T13:53:55.123Z,150277.34
2022-12-18T13:56:29.469Z,150268.34
2022-12-18T13:59:15.873Z,150254.22
2022-12-18T14:01:53.157Z,150234.94
2022-12-18T14:04:27.518Z,150214.41
2022-12-18T14:07:01.647Z,150202.88
2022-12-18T14:09:35.015Z,150199.03
2022-12-18T14:12:20.142Z,150208.00
2022-12-18T14:14:53.168Z,150193.88
2022-12-18T14:17:28.546Z,150178.50
2022-12-18T14:19:58.679Z,150169.50
2022-12-18T14:22:31.295Z,150175.91
2022-12-18T14:25:20.391Z,150147.66
2022-12-18T14:27:53.709Z,150145.13
2022-12-18T14:30:33.708Z,150127.13
2022-12-18T14:33:14.450Z,150095.06
2022-12-18T14:35:50.544Z,150083.50
2022-12-18T14:38:27.740Z,150064.25
2022-12-18T14:41:05.595Z,150036.06
2022-12-18T14:43:38.527Z,150012.94
2022-12-18T14:46:10.652Z,149989.84
2022-12-18T14:48:46.432Z,149960.34
2022-12-18T14:51:21.895Z,149938.56
2022-12-18T14:53:57.721Z,149924.44
2022-12-18T14:56:30.097Z,149907.75
2022-12-18T14:59:02.150Z,149885.97
2022-12-18T15:01:36.243Z,149864.19
2022-12-18T15:04:29.222Z,149847.47
2022-12-18T15:07:17.390Z,149829.53
2022-12-18T15:10:07.288Z,149818.00
2022-12-18T15:12:39.294Z,149802.63
2022-12-18T15:15:26.723Z,149782.13
2022-12-18T15:18:01.967Z,149764.16
2022-12-18T15:20:36.878Z,149743.66
2022-12-18T15:23:06.958Z,149730.81
2022-12-18T15:25:40.497Z,149718.03
2022-12-18T15:28:24.020Z,149701.34
2022-12-18T15:31:09.396Z,149688.56
2022-12-18T15:33:42.003Z,149675.72
2022-12-18T15:36:19.002Z,149655.22
2022-12-18T15:39:02.223Z,149651.38
2022-12-18T15:41:37.255Z,149629.63
2022-12-18T15:44:22.541Z,149621.91
2022-12-18T15:46:53.025Z,149610.41
2022-12-18T15:49:25.331Z,149601.41
2022-12-18T15:52:02.264Z,149588.59
2022-12-18T15:54:44.672Z,149573.22
2022-12-18T15:57:27.720Z,149559.13
2022-12-18T15:59:59.710Z,149547.63
2022-12-18T16:02:30.869Z,149534.78
2022-12-18T16:05:01.327Z,149518.16
2022-12-18T16:07:34.213Z,149513.03
2022-12-18T16:10:04.947Z,149501.47
2022-12-18T16:12:35.340Z,149498.94
2022-12-18T16:15:11.413Z,149497.69
2022-12-18T16:17:42.502Z,149483.59
2022-12-18T16:20:16.613Z,149473.34
2022-12-18T16:22:50.639Z,149464.38
2022-12-18T16:25:26.038Z,149459.25
2022-12-18T16:27:57.427Z,149449.00
2022-12-18T16:30:34.027Z,149440.03
2022-12-18T16:33:09.299Z,149440.03
2022-12-18T16:35:39.439Z,149424.69
2022-12-18T16:38:12.386Z,149423.38
2022-12-18T16:41:04.736Z,149405.47
2022-12-18T16:43:34.912Z,149396.50
2022-12-18T16:46:05.074Z,149395.22
2022-12-18T16:48:42.421Z,149379.88
2022-12-18T16:51:12.498Z,149367.06
2022-12-18T16:53:45.684Z,149370.91
2022-12-18T16:56:15.924Z,149361.94
2022-12-18T16:58:45.959Z,149354.25
2022-12-18T17:01:16.497Z,149355.56
2022-12-18T17:03:46.896Z,149340.16
2022-12-18T17:06:18.741Z,149337.63
2022-12-18T17:08:52.264Z,149327.38
2022-12-18T17:11:23.323Z,149317.16
2022-12-18T17:13:54.997Z,149312.03
2022-12-18T17:16:28.115Z,149304.34
2022-12-18T17:19:01.778Z,149290.25
2022-12-18T17:21:33.216Z,149285.13
2022-12-18T17:24:09.324Z,149271.06
2022-12-18T17:26:40.348Z,149271.06
2022-12-18T17:29:10.668Z,149260.81
2022-12-18T17:31:40.890Z,149255.69
2022-12-18T17:34:11.387Z,149250.59
2022-12-18T17:36:43.333Z,149242.94
2022-12-18T17:39:22.186Z,149232.66
2022-12-18T17:41:52.718Z,149222.44
2022-12-18T17:44:23.839Z,149212.19
2022-12-18T17:46:54.041Z,149207.06
2022-12-18T17:49:26.184Z,149212.19
2022-12-18T17:51:56.782Z,149204.53
2022-12-18T17:54:29.670Z,149201.97
2022-12-18T17:57:00.599Z,149194.31
2022-12-18T17:59:35.326Z,149185.34
2022-12-18T18:02:05.827Z,149184.09
2022-12-18T18:04:38.908Z,149177.66
2022-12-18T18:07:09.605Z,149176.38
2022-12-18T18:09:42.729Z,149171.28
2022-12-18T18:12:25.124Z,149170.00
2022-12-18T18:14:55.405Z,149164.88
2022-12-18T18:17:25.966Z,149155.94
2022-12-18T18:19:56.356Z,149150.81
2022-12-18T18:22:29.285Z,149143.13
2022-12-18T18:25:03.468Z,149144.38
2022-12-18T18:27:38.509Z,149141.84
2022-12-18T18:30:10.981Z,149138.00
2022-12-18T18:32:41.052Z,149129.03
2022-12-18T18:35:19.512Z,149121.41
2022-12-18T18:38:04.457Z,149113.69
2022-12-18T18:40:37.403Z,149109.84
2022-12-18T18:43:12.992Z,149109.84
2022-12-18T18:45:43.757Z,149098.34
2022-12-18T18:48:16.158Z,149106.06
2022-12-18T18:50:46.358Z,149103.47
2022-12-18T18:53:16.804Z,149090.66
2022-12-18T18:56:17.290Z,149089.41
2022-12-18T18:58:40.527Z,149085.56
2022-12-18T19:01:13.428Z,149081.75
2022-12-18T19:03:43.964Z,149079.19
2022-12-18T19:06:18.128Z,149074.06
2022-12-18T19:08:49.537Z,149063.84
2022-12-18T19:11:36.755Z,149060.00
2022-12-18T19:14:17.507Z,149058.72
2022-12-18T19:16:50.163Z,149045.91
2022-12-18T19:19:21.201Z,149045.91
2022-12-18T19:21:51.671Z,149053.63
2022-12-18T19:24:22.631Z,149051.03
2022-12-18T19:26:57.942Z,149036.97
2022-12-18T19:29:28.633Z,149031.84
2022-12-18T19:31:59.299Z,149026.72
2022-12-18T19:34:29.796Z,149028.06
2022-12-18T19:37:00.491Z,149028.06
2022-12-18T19:39:31.014Z,149025.47
2022-12-18T19:42:04.247Z,149013.97
2022-12-18T19:44:34.432Z,149017.81
2022-12-18T19:47:04.702Z,149013.97
2022-12-18T19:49:34.935Z,149001.16
2022-12-18T19:52:05.347Z,148987.09
2022-12-18T19:54:35.441Z,148974.34
2022-12-18T19:57:13.186Z,148975.63
2022-12-18T19:59:46.641Z,148976.88
2022-12-18T20:02:19.320Z,148978.16
2022-12-18T20:04:52.012Z,148971.78
2022-12-18T20:07:22.499Z,148961.56
2022-12-18T20:09:59.563Z,148948.75
2022-12-18T20:12:37.616Z,148948.75
2022-12-18T20:15:08.727Z,148946.22
2022-12-18T20:17:38.893Z,148938.53
2022-12-18T20:20:13.248Z,148943.63
2022-12-18T20:22:43.575Z,148951.31
2022-12-18T20:25:14.170Z,148941.09
2022-12-18T20:27:47.809Z,148946.22
2022-12-18T20:30:18.082Z,148953.84
2022-12-18T20:32:48.340Z,148950.06
2022-12-18T20:35:18.860Z,148952.59
2022-12-18T20:37:50.394Z,148961.56
2022-12-18T20:40:22.209Z,148952.59
2022-12-18T20:42:55.534Z,148946.22
2022-12-18T20:45:29.529Z,148944.94
2022-12-18T20:48:01.172Z,148937.25
2022-12-18T20:50:31.542Z,148927.03
2022-12-18T20:53:02.094Z,148910.44
2022-12-18T20:55:32.389Z,148924.47
2022-12-18T20:58:05.689Z,148928.31
2022-12-18T21:00:36.470Z,148915.56
2022-12-18T21:03:07.256Z,148914.25
2022-12-18T21:05:37.752Z,148907.88
2022-12-18T21:08:10.527Z,148904.00
2022-12-18T21:10:43.239Z,148902.75
2022-12-18T21:13:16.365Z,148904.00
2022-12-18T21:15:48.568Z,148904.00
2022-12-18T21:18:18.836Z,148900.16
2022-12-18T21:20:49.401Z,148898.91
2022-12-18T21:23:19.888Z,148893.81
2022-12-18T21:25:51.954Z,148893.81
2022-12-18T21:28:28.730Z,148892.53
2022-12-18T21:31:12.268Z,148891.28
2022-12-18T21:33:43.297Z,148889.97
2022-12-18T21:36:17.862Z,148892.53
2022-12-18T21:38:48.793Z,148884.84
2022-12-18T21:41:33.136Z,148887.44
2022-12-18T21:44:11.377Z,148891.28
2022-12-18T21:46:44.221Z,148887.44
2022-12-18T21:49:17.786Z,148889.97
2022-12-18T21:51:48.785Z,148877.22
2022-12-18T21:54:19.676Z,148877.22
2022-12-18T21:56:52.131Z,148870.78
2022-12-18T21:59:26.864Z,148884.84
2022-12-18T22:01:59.606Z,148879.75
2022-12-18T22:04:31.107Z,148882.31
2022-12-18T22:07:02.538Z,148887.44
2022-12-18T22:09:33.200Z,148882.31
2022-12-18T22:12:04.035Z,148881.06
2022-12-18T22:14:39.485Z,148887.44
2022-12-18T22:17:11.471Z,148881.06
2022-12-18T22:19:43.103Z,148892.53
2022-12-18T22:22:13.369Z,148883.59
2022-12-18T22:24:43.452Z,148882.31
2022-12-18T22:27:13.560Z,148884.84
2022-12-18T22:29:58.993Z,148886.16
2022-12-18T22:32:31.165Z,148874.63
2022-12-18T22:35:08.018Z,148869.50
2022-12-18T22:37:39.441Z,148872.09
2022-12-18T22:40:11.173Z,148875.88
2022-12-18T22:42:43.060Z,148875.88
2022-12-18T22:45:21.141Z,148882.31
2022-12-18T22:47:51.330Z,148870.78
2022-12-18T22:50:21.605Z,148872.09
2022-12-18T22:52:51.674Z,148873.34
2022-12-18T22:55:22.570Z,148867.03
2022-12-18T22:57:52.675Z,148852.97
2022-12-18T23:00:25.834Z,148847.88
2022-12-18T23:03:00.716Z,148837.66
2022-12-18T23:05:32.433Z,148836.34
2022-12-18T23:08:03.089Z,148835.06
2022-12-18T23:10:33.888Z,148829.97
2022-12-18T23:13:04.418Z,148828.69
2022-12-18T23:15:44.043Z,148827.44
2022-12-18T23:18:14.500Z,148827.44
2022-12-18T23:20:44.742Z,148817.16
2022-12-18T23:23:16.216Z,148813.38
2022-12-18T23:25:46.446Z,148804.41
2022-12-18T23:28:17.824Z,148795.47
2022-12-18T23:30:51.320Z,148790.34
2022-12-18T23:33:21.427Z,148790.34
2022-12-18T23:35:51.773Z,148787.78
2022-12-18T23:38:23.242Z,148786.50
2022-12-18T23:40:56.329Z,148785.25
2022-12-18T23:43:29.512Z,148785.25
2022-12-18T23:46:02.571Z,148783.97
2022-12-18T23:48:33.160Z,148780.13
2022-12-18T23:51:11.171Z,148776.28
2022-12-18T23:53:41.557Z,148777.56
2022-12-18T23:56:13.702Z,148775.03
2022-12-18T23:58:47.082Z,148762.25
